Date,TemperatureHighF,TemperatureAvgF,TemperatureLowF,DewpointHighF,DewpointAvgF,DewpointLowF,HumidityHigh,HumidityAvg,HumidityLow,PressureMaxIn,PressureMinIn,WindSpeedMaxMPH,WindSpeedAvgMPH,GustSpeedMaxMPH,PrecipitationSumIn
2013-1-1,88.4,78.1,67.0,70.7,64.5,58.3,84,64,39,30.06,29.88,22,6,28,0.00
2013-1-2,84.8,76.9,72.0,69.3,63.6,55.2,78,64,43,29.98,29.90,22,5,28,0.00
2013-1-3,83.0,76.1,70.1,70.5,62.3,53.8,76,63,51,29.99,29.90,27,6,32,0.00
2013-1-4,85.3,76.9,74.6,62.8,61.1,58.8,64,58,46,30.02,29.91,35,12,39,0.00
2013-1-5,80.5,77.7,71.4,70.4,60.6,49.4,76,57,39,30.06,29.95,28,6,36,0.00
2013-1-6,77.5,71.8,67.1,65.9,56.2,51.5,68,58,44,30.08,30.01,12,3,17,0.00
2013-1-7,86.1,74.4,66.9,67.8,60.3,52.7,75,62,42,30.02,29.88,12,4,30,0.00
2013-1-8,85.6,76.3,68.8,67.2,64.4,50.0,73,67,46,29.93,29.83,12,3,25,0.00
2013-1-9,79.2,76.3,67.2,68.2,64.1,56.7,72,66,51,29.95,29.84,21,4,25,0.00
2013-1-10,81.4,74.5,69.3,69.1,62.3,57.5,76,66,53,29.95,29.85,17,4,23,0.00
2013-1-11,82.3,75.8,70.7,67.3,63.0,58.7,73,65,52,29.91,29.81,19,5,23,0.00
2013-1-19,81.1,73.3,65.7,61.8,55.7,47.5,71,55,31,29.97,29.83,11,5,22,0.00
2013-1-20,80.5,73.1,67.9,62.4,56.4,51.1,66,56,47,30.00,29.89,7,3,22,0.00
2013-1-21,77.5,72.7,64.7,67.5,62.2,55.8,76,70,60,30.05,29.96,7,3,13,0.00
2013-1-22,81.7,74.8,70.6,66.5,61.4,57.2,71,63,51,30.07,29.97,12,6,28,0.00
2013-1-23,82.7,74.4,70.1,67.2,62.4,57.7,76,67,49,30.02,29.95,13,4,30,0.00
2013-1-24,77.3,72.1,66.5,68.9,62.2,55.1,81,71,57,30.04,29.97,6,3,10,0.00
2013-1-25,77.5,73.7,66.0,68.4,64.9,56.7,83,74,65,30.03,29.95,6,2,10,0.00
2013-1-26,77.7,71.7,65.5,68.7,62.2,55.2,78,72,54,30.02,29.91,10,3,10,0.00
2013-1-27,80.4,72.8,65.4,67.5,61.8,54.8,78,69,48,29.98,29.87,9,3,11,0.00
2013-1-28,78.4,73.8,67.8,68.0,62.7,52.8,82,69,54,29.97,29.86,10,2,10,0.00
2013-1-29,77.0,72.7,68.2,69.2,65.3,58.3,90,78,68,30.01,29.90,10,2,13,0.10
2013-1-30,76.7,71.2,68.2,70.0,67.3,65.8,93,88,74,30.04,29.98,9,2,11,0.17
2013-1-31,78.9,76.0,65.6,70.7,67.1,60.8,85,74,63,30.05,29.95,17,3,17,0.00
2013-2-1,85.0,81.4,74.1,65.2,59.4,56.1,70,49,39,30.04,29.95,38,11,38,0.00
2013-2-2,84.8,84.8,84.8,57.8,57.8,57.8,40,40,40,29.95,29.95,13,13,35,0.00
2013-2-3,84.8,84.8,84.8,57.8,57.8,57.8,40,40,40,29.95,29.95,13,13,35,0.00
2013-2-4,88.8,78.4,69.6,67.0,59.5,54.5,72,54,37,30.02,29.95,26,8,35,0.00
2013-2-5,85.9,75.2,70.7,67.1,60.4,56.1,71,61,42,30.02,29.91,32,8,41,0.00
2013-2-6,79.3,74.0,66.4,68.7,62.8,53.6,84,69,50,30.02,29.93,13,3,19,0.00
2013-2-7,74.3,72.8,70.8,67.6,66.2,65.1,83,80,77,30.01,29.97,5,1,7,0.00
2013-2-8,81.1,75.2,69.8,69.2,63.3,58.1,73,67,54,30.09,29.98,10,4,25,0.00
2013-2-9,80.1,74.6,67.4,68.6,62.5,54.3,73,66,61,30.07,29.96,10,5,27,0.00
2013-2-10,87.8,76.8,72.3,68.1,62.1,57.7,73,61,39,30.12,29.98,11,7,30,0.00
2013-2-11,82.0,76.7,70.1,68.6,62.0,54.1,73,61,40,30.13,30.02,24,7,28,0.00
2013-2-12,82.9,73.8,70.2,64.3,59.0,54.8,67,60,47,30.12,29.99,23,6,24,0.00
2013-2-13,84.6,72.7,67.8,60.6,55.6,53.1,67,55,37,30.07,29.94,25,7,26,0.00
2013-2-14,86.0,72.8,67.8,63.4,57.4,54.9,67,59,36,30.04,29.92,26,9,27,0.00
2013-2-15,89.6,75.1,69.2,67.2,61.2,54.8,76,63,41,30.04,29.90,27,6,37,0.00
2013-2-16,74.4,73.1,71.7,61.5,59.7,58.4,67,63,58,30.04,29.97,25,9,33,0.00
2013-2-17,85.1,75.8,70.9,61.0,57.1,52.5,64,53,39,30.07,29.92,18,12,46,0.00
2013-2-18,82.6,74.4,69.8,61.5,58.2,53.4,64,57,45,30.06,29.91,41,13,45,0.00
2013-2-19,83.6,74.7,70.2,60.4,57.7,55.4,65,56,42,30.06,29.92,41,12,41,0.00
2013-2-20,85.8,76.2,70.5,62.6,58.8,55.4,67,55,38,30.07,29.96,36,11,36,0.00
2013-2-21,72.9,71.4,68.7,60.9,59.8,58.6,75,67,61,30.05,30.01,19,6,22,0.00
2013-2-22,84.8,77.2,72.2,69.4,61.8,56.7,76,60,46,30.05,29.95,11,6,33,0.00
2013-2-23,79.0,75.5,72.5,68.6,62.9,57.7,75,65,56,30.06,29.96,13,6,30,0.00
2013-2-24,86.1,75.8,70.7,62.5,59.9,57.8,68,58,43,30.04,29.92,15,10,34,0.00
2013-2-25,86.5,75.9,70.4,68.0,60.7,56.6,73,60,40,30.09,29.94,17,9,39,0.00
2013-2-26,86.9,75.4,70.9,67.4,58.8,53.1,72,57,32,30.09,29.97,14,9,39,0.00
2013-2-27,85.7,75.7,71.0,60.6,57.9,56.2,65,55,38,30.10,30.01,13,10,36,0.00
2013-2-28,86.6,74.4,69.8,61.8,57.2,50.1,64,55,39,30.13,30.02,23,9,33,0.00
2013-3-1,71.4,71.0,70.5,57.9,57.4,57.0,64,62,61,30.12,30.08,23,10,29,0.00
2013-3-2,85.7,75.4,70.0,63.9,57.7,53.0,66,55,36,30.11,29.94,15,10,37,0.00
2013-3-3,85.9,75.0,70.8,65.5,58.2,54.3,68,56,38,30.09,30.02,15,10,41,0.00
2013-3-4,82.1,77.5,69.5,61.2,59.1,52.9,63,53,40,30.11,30.06,27,10,31,0.00
2013-3-5,77.4,77.4,77.4,59.5,59.5,59.5,54,54,54,30.09,30.09,10,10,14,0.00
2013-3-7,77.4,77.4,77.4,59.5,59.5,59.5,54,54,54,30.09,30.09,10,10,14,0.00
2013-3-9,74.5,73.2,72.0,67.2,62.8,61.2,78,70,66,29.92,29.89,4,2,20,0.00
2013-3-10,81.2,75.8,68.9,70.8,68.4,60.9,87,78,66,30.00,29.83,17,6,27,0.02
2013-3-11,79.0,72.9,64.1,68.3,65.4,58.5,90,78,67,30.05,29.94,7,3,13,0.13
2013-3-12,78.5,75.4,69.2,69.2,68.1,65.8,89,78,70,30.04,29.95,4,1,5,0.01
2013-3-13,78.9,73.5,66.8,66.9,63.6,59.7,78,71,65,30.04,29.95,6,3,13,0.00
2013-3-14,78.7,74.1,67.5,67.3,63.0,57.1,75,68,55,30.05,29.95,7,3,10,0.00
2013-3-15,76.8,74.1,70.6,68.8,67.1,62.7,87,79,71,29.98,29.91,9,4,13,0.00
2013-3-16,73.4,70.6,67.8,66.5,63.7,59.6,87,79,72,29.99,29.89,14,2,21,0.02
2013-3-17,77.5,71.7,67.3,63.5,59.5,55.0,77,66,51,30.00,29.90,9,3,14,0.00
2013-3-18,71.2,67.7,66.9,60.5,57.8,56.1,73,71,68,29.99,29.96,5,3,12,0.00
2013-3-19,77.6,72.0,64.3,65.3,58.9,52.2,71,64,53,30.01,29.92,9,4,12,0.00
2013-3-20,79.3,72.9,67.4,69.8,59.9,54.1,73,64,51,30.03,29.94,7,3,10,0.00
2013-3-21,79.3,74.1,68.4,70.7,63.5,58.2,78,70,62,30.03,29.96,8,4,13,0.00
2013-3-25,79.5,79.0,78.7,70.3,69.6,68.8,75,73,72,29.92,29.89,6,3,7,0.00
2013-3-26,79.3,74.8,69.2,70.8,66.8,62.4,84,76,68,30.01,29.91,7,2,11,0.00
2013-3-27,76.8,73.4,69.4,67.5,62.6,58.8,73,69,63,29.98,29.91,5,3,9,0.00
2013-3-28,78.3,74.0,70.6,65.6,61.6,56.1,73,66,55,29.98,29.92,6,4,18,0.00
2013-3-29,80.3,75.3,71.0,68.2,64.1,59.9,82,68,59,30.01,29.93,8,4,24,0.00
2013-3-30,78.7,73.7,67.8,69.1,65.5,60.9,81,76,66,30.03,29.93,6,2,9,0.00
2013-3-31,78.4,73.5,69.5,65.3,61.9,58.1,74,67,59,29.99,29.93,12,4,17,0.00
2013-4-1,74.8,71.4,66.6,59.5,56.6,54.1,71,60,50,30.00,29.94,5,2,9,0.00
2013-4-2,77.9,71.5,64.0,63.0,57.5,51.6,66,61,54,30.04,29.93,12,5,18,0.00
2013-4-3,79.8,73.9,66.7,64.8,59.7,56.0,70,61,51,30.06,29.95,9,4,19,0.00
2013-4-4,76.6,72.3,66.1,61.2,57.5,52.0,67,60,52,30.06,29.97,5,3,12,0.00
2013-4-5,79.7,75.7,69.2,69.7,65.7,58.3,75,71,62,30.07,29.98,7,3,10,0.00
2013-4-6,79.7,74.8,68.1,70.0,65.1,57.5,84,72,65,30.12,30.00,5,2,9,0.00
2013-4-7,80.7,76.9,72.1,71.1,66.3,60.5,76,70,62,30.13,30.02,9,3,21,0.00
2013-4-8,81.0,76.8,71.5,68.2,63.4,58.9,71,64,53,30.05,29.97,9,5,23,0.00
2013-4-9,80.2,75.7,69.4,70.2,67.6,62.5,87,76,64,30.04,29.92,11,4,16,0.16
2013-4-10,80.7,76.1,68.0,70.8,66.8,59.8,81,73,58,30.03,29.92,9,3,13,0.00
2013-4-11,79.8,76.8,71.8,70.5,67.2,60.3,82,72,61,30.01,29.91,6,2,9,0.00
2013-4-12,80.2,77.0,69.9,71.0,67.0,58.5,75,71,63,29.97,29.90,10,4,10,0.00
2013-4-13,80.5,76.3,71.2,71.9,67.4,61.5,80,74,69,29.96,29.83,9,3,14,0.00
2013-4-14,81.2,75.7,69.3,70.8,66.6,60.0,81,73,56,29.97,29.87,7,3,11,0.00
2013-4-15,79.4,75.8,66.3,71.6,68.2,61.7,89,78,70,30.00,29.92,9,4,13,0.28
2013-4-17,81.7,76.9,70.7,72.2,67.6,59.6,85,73,61,30.09,30.00,8,4,25,0.00
2013-4-18,87.4,78.4,73.9,70.1,64.6,60.6,69,63,44,30.09,30.00,10,6,31,0.00
2013-4-19,81.2,76.6,70.1,71.3,63.8,56.1,74,65,54,30.06,29.99,10,5,23,0.00
2013-4-20,81.3,76.6,70.5,71.0,66.1,59.7,79,70,59,30.06,29.99,6,3,14,0.00
2013-4-21,80.7,75.2,68.5,70.5,66.3,59.8,83,74,62,30.04,29.95,7,3,10,0.00
2013-4-22,80.2,75.6,67.6,71.1,66.6,59.0,81,74,63,30.03,29.95,10,3,14,0.00
2013-4-23,80.3,76.4,69.7,71.2,67.0,61.8,78,73,61,30.04,29.97,11,5,13,0.00
2013-4-24,84.2,77.1,69.2,71.5,68.2,59.7,84,74,62,30.05,29.95,5,3,16,0.00
2013-4-25,81.8,78.0,72.2,71.5,68.3,61.2,82,72,68,30.03,29.95,9,4,15,0.00
2013-4-26,89.8,78.4,73.4,69.3,62.9,60.3,69,60,39,30.00,29.93,12,7,27,0.00
2013-4-27,81.1,76.3,70.2,70.1,64.8,57.5,77,68,61,30.03,29.92,7,3,13,0.00
2013-4-28,80.4,76.1,69.6,70.5,65.2,58.3,80,69,60,30.01,29.91,9,3,13,0.00
2013-4-29,80.9,76.6,71.0,71.6,67.8,62.2,83,74,63,29.98,29.90,12,5,16,0.00
2013-4-30,83.4,77.1,69.4,71.5,66.7,57.6,81,71,63,30.00,29.91,6,3,13,0.00
2013-5-1,84.5,78.0,71.3,69.3,65.1,59.5,71,65,50,30.02,29.94,11,6,27,0.00
2013-5-2,82.7,76.8,71.5,72.1,66.3,60.0,79,70,59,30.05,29.98,6,3,14,0.01
2013-5-3,80.5,76.7,72.2,71.4,65.9,57.3,80,70,59,30.04,29.96,8,4,19,0.03
2013-5-4,80.0,75.7,68.5,71.0,68.4,63.6,88,78,70,29.99,29.90,6,3,12,0.15
2013-5-5,79.9,75.6,69.2,71.0,68.5,66.1,91,79,67,29.95,29.86,6,3,13,0.72
2013-5-6,80.1,76.8,71.9,71.4,69.2,66.8,87,77,70,29.96,29.85,7,2,10,0.00
2013-5-7,81.6,77.0,70.5,71.4,68.2,63.5,86,75,65,29.96,29.88,8,4,10,0.00
2013-5-10,85.0,80.0,73.1,74.9,70.9,65.5,81,74,62,30.06,29.96,9,2,16,0.00
2013-5-11,83.2,79.6,76.3,73.4,71.8,68.6,85,77,68,30.05,29.96,6,2,9,0.00
2013-5-12,84.2,79.6,75.8,73.9,70.1,66.0,82,73,64,30.02,29.94,10,5,24,0.01
2013-5-13,83.8,79.2,74.8,73.9,69.8,61.0,80,73,56,30.02,29.95,8,4,21,0.00
2013-5-14,86.5,80.1,74.5,73.3,65.1,58.6,73,61,47,30.07,29.97,9,6,27,0.00
2013-5-15,87.4,79.6,75.7,72.3,66.2,60.1,74,64,44,30.08,30.00,9,4,33,0.00
2013-5-16,90.0,80.3,74.2,71.8,65.5,57.1,70,62,33,30.08,29.98,9,5,24,0.00
2013-5-17,88.8,78.7,72.6,69.7,65.0,59.1,84,64,39,30.03,29.94,10,5,26,0.21
2013-5-18,81.7,77.1,69.2,73.0,67.2,59.6,83,72,58,30.00,29.93,9,4,18,0.00
2013-5-19,80.9,77.4,73.7,71.4,69.9,68.2,84,78,71,29.98,29.88,7,3,11,0.00
2013-5-20,81.2,78.9,70.4,70.2,69.0,64.3,81,72,65,29.94,29.89,10,6,11,0.00
2013-5-21,80.9,78.0,69.4,71.0,68.0,61.1,75,71,67,29.99,29.91,8,5,12,0.00
2013-5-22,83.0,78.4,72.0,71.8,67.6,62.8,75,70,58,30.02,29.93,8,3,11,0.00
2013-5-23,83.2,79.1,71.8,73.2,69.4,62.3,78,73,64,30.01,29.95,5,3,11,0.00
2013-10-21,83.3,82.0,79.3,73.0,70.4,68.6,73,68,62,29.93,29.84,10,4,12,0.00
2013-10-22,85.3,83.6,81.1,71.2,69.1,66.5,70,62,56,29.95,29.85,10,5,10,0.00
2013-10-23,82.3,81.1,79.9,72.8,70.6,68.0,73,70,67,29.96,29.88,5,2,7,0.00
2013-10-24,82.4,81.1,79.4,72.6,71.3,69.8,76,72,69,29.95,29.85,7,3,8,0.00
2013-10-25,81.3,76.4,73.3,72.6,66.4,62.5,78,71,62,29.95,29.91,6,2,8,0.00